sensor_id;sensor_type;location;lat;lon;timestamp;temperature;humidity
3310;DHT22;1667;53.238;10.394;2023-05-10T00:02:31;16.80;68.20
3310;DHT22;1667;53.238;10.394;2023-05-10T00:07:29;16.80;67.90
3310;DHT22;1667;53.238;10.394;2023-05-10T00:12:28;16.70;68.00
3310;DHT22;1667;53.238;10.394;2023-05-10T00:17:28;16.60;68.40
3310;DHT22;1667;53.238;10.394;2023-05-10T00:22:26;16.70;69.00
3310;DHT22;1667;53.238;10.394;2023-05-10T00:27:25;16.60;68.60
3310;DHT22;1667;53.238;10.394;2023-05-10T00:32:23;16.50;68.60
3310;DHT22;1667;53.238;10.394;2023-05-10T00:37:24;16.60;69.20
3310;DHT22;1667;53.238;10.394;2023-05-10T00:42:22;16.60;69.20
3310;DHT22;1667;53.238;10.394;2023-05-10T00:47:23;16.40;69.00
3310;DHT22;1667;53.238;10.394;2023-05-10T00:52:23;16.30;69.50
3310;DHT22;1667;53.238;10.394;2023-05-10T00:57:23;16.30;70.00
3310;DHT22;1667;53.238;10.394;2023-05-10T01:02:22;16.20;70.10
3310;DHT22;1667;53.238;10.394;2023-05-10T01:07:20;16.10;69.90
3310;DHT22;1667;53.238;10.394;2023-05-10T01:12:20;16.10;70.40
3310;DHT22;1667;53.238;10.394;2023-05-10T01:17:20;16.10;70.50
3310;DHT22;1667;53.238;10.394;2023-05-10T01:28:07;15.90;71.00
3310;DHT22;1667;53.238;10.394;2023-05-10T01:33:19;15.90;71.20
3310;DHT22;1667;53.238;10.394;2023-05-10T01:38:22;16.00;71.80
3310;DHT22;1667;53.238;10.394;2023-05-10T01:43:26;16.00;72.10
3310;DHT22;1667;53.238;10.394;2023-05-10T01:48:29;16.00;71.50
3310;DHT22;1667;53.238;10.394;2023-05-10T01:53:30;16.00;72.20
3310;DHT22;1667;53.238;10.394;2023-05-10T01:58:32;16.10;72.20
3310;DHT22;1667;53.238;10.394;2023-05-10T02:03:35;16.10;72.20
3310;DHT22;1667;53.238;10.394;2023-05-10T02:08:35;16.10;72.40
3310;DHT22;1667;53.238;10.394;2023-05-10T02:13:36;16.10;72.00
3310;DHT22;1667;53.238;10.394;2023-05-10T02:18:40;16.00;71.40
3310;DHT22;1667;53.238;10.394;2023-05-10T02:23:39;15.80;71.80
3310;DHT22;1667;53.238;10.394;2023-05-10T02:28:39;15.80;72.60
3310;DHT22;1667;53.238;10.394;2023-05-10T02:33:40;15.60;72.10
3310;DHT22;1667;53.238;10.394;2023-05-10T02:38:39;15.60;72.50
3310;DHT22;1667;53.238;10.394;2023-05-10T02:43:39;15.40;72.30
3310;DHT22;1667;53.238;10.394;2023-05-10T02:48:40;15.40;73.10
3310;DHT22;1667;53.238;10.394;2023-05-10T02:53:42;15.40;73.10
3310;DHT22;1667;53.238;10.394;2023-05-10T02:58:42;15.40;73.30
3310;DHT22;1667;53.238;10.394;2023-05-10T03:03:42;15.40;73.60
3310;DHT22;1667;53.238;10.394;2023-05-10T03:08:40;15.40;74.10
3310;DHT22;1667;53.238;10.394;2023-05-10T03:13:47;15.30;73.70
3310;DHT22;1667;53.238;10.394;2023-05-10T03:18:54;15.30;75.10
3310;DHT22;1667;53.238;10.394;2023-05-10T03:23:59;15.20;74.10
3310;DHT22;1667;53.238;10.394;2023-05-10T03:29:02;15.20;74.10
3310;DHT22;1667;53.238;10.394;2023-05-10T03:34:02;15.10;74.20
3310;DHT22;1667;53.238;10.394;2023-05-10T03:39:01;15.00;74.60
3310;DHT22;1667;53.238;10.394;2023-05-10T03:44:00;15.00;74.80
3310;DHT22;1667;53.238;10.394;2023-05-10T03:49:00;15.00;75.10
3310;DHT22;1667;53.238;10.394;2023-05-10T03:54:00;15.00;75.40
3310;DHT22;1667;53.238;10.394;2023-05-10T03:58:58;15.00;75.10
3310;DHT22;1667;53.238;10.394;2023-05-10T04:04:00;15.00;75.80
3310;DHT22;1667;53.238;10.394;2023-05-10T04:09:02;14.90;75.50
3310;DHT22;1667;53.238;10.394;2023-05-10T04:14:01;15.00;76.40
3310;DHT22;1667;53.238;10.394;2023-05-10T04:19:00;15.00;76.00
3310;DHT22;1667;53.238;10.394;2023-05-10T04:23:58;15.10;76.20
3310;DHT22;1667;53.238;10.394;2023-05-10T04:28:58;15.10;76.10
3310;DHT22;1667;53.238;10.394;2023-05-10T04:33:56;15.20;76.40
3310;DHT22;1667;53.238;10.394;2023-05-10T04:38:55;15.20;76.50
3310;DHT22;1667;53.238;10.394;2023-05-10T04:43:53;15.20;76.70
3310;DHT22;1667;53.238;10.394;2023-05-10T04:48:53;15.30;76.70
3310;DHT22;1667;53.238;10.394;2023-05-10T04:53:52;15.30;77.00
3310;DHT22;1667;53.238;10.394;2023-05-10T04:59:02;15.40;77.50
3310;DHT22;1667;53.238;10.394;2023-05-10T05:04:02;15.50;77.20
3310;DHT22;1667;53.238;10.394;2023-05-10T05:09:01;15.50;77.70
3310;DHT22;1667;53.238;10.394;2023-05-10T05:13:59;15.60;77.90
3310;DHT22;1667;53.238;10.394;2023-05-10T05:18:58;15.70;77.90
3310;DHT22;1667;53.238;10.394;2023-05-10T05:23:59;15.90;78.40
3310;DHT22;1667;53.238;10.394;2023-05-10T05:28:58;16.10;78.30
3310;DHT22;1667;53.238;10.394;2023-05-10T05:33:56;16.30;78.30
3310;DHT22;1667;53.238;10.394;2023-05-10T05:38:55;16.50;77.80
3310;DHT22;1667;53.238;10.394;2023-05-10T05:43:55;16.60;77.90
3310;DHT22;1667;53.238;10.394;2023-05-10T05:48:53;16.70;77.70
3310;DHT22;1667;53.238;10.394;2023-05-10T05:53:51;16.80;78.30
3310;DHT22;1667;53.238;10.394;2023-05-10T05:58:50;17.00;78.00
3310;DHT22;1667;53.238;10.394;2023-05-10T06:03:50;17.20;77.70
3310;DHT22;1667;53.238;10.394;2023-05-10T06:08:49;17.20;77.60
3310;DHT22;1667;53.238;10.394;2023-05-10T06:13:48;17.30;77.50
3310;DHT22;1667;53.238;10.394;2023-05-10T06:18:46;17.50;77.80
3310;DHT22;1667;53.238;10.394;2023-05-10T06:23:46;17.70;77.80
3310;DHT22;1667;53.238;10.394;2023-05-10T06:28:45;17.80;77.60
3310;DHT22;1667;53.238;10.394;2023-05-10T06:33:44;18.10;77.50
3310;DHT22;1667;53.238;10.394;2023-05-10T06:38:42;18.20;77.30
3310;DHT22;1667;53.238;10.394;2023-05-10T06:43:42;18.30;77.30
3310;DHT22;1667;53.238;10.394;2023-05-10T06:48:40;18.30;77.30
3310;DHT22;1667;53.238;10.394;2023-05-10T06:53:39;18.40;77.60
3310;DHT22;1667;53.238;10.394;2023-05-10T06:58:37;18.50;77.40
3310;DHT22;1667;53.238;10.394;2023-05-10T07:03:36;18.50;77.50
3310;DHT22;1667;53.238;10.394;2023-05-10T07:08:35;18.60;77.80
3310;DHT22;1667;53.238;10.394;2023-05-10T07:13:34;18.70;77.00
3310;DHT22;1667;53.238;10.394;2023-05-10T07:18:33;18.80;76.70
3310;DHT22;1667;53.238;10.394;2023-05-10T07:23:33;18.80;77.70
3310;DHT22;1667;53.238;10.394;2023-05-10T07:28:32;19.10;77.50
3310;DHT22;1667;53.238;10.394;2023-05-10T07:33:30;19.20;76.40
3310;DHT22;1667;53.238;10.394;2023-05-10T07:38:29;19.20;76.70
3310;DHT22;1667;53.238;10.394;2023-05-10T07:43:29;19.30;77.10
3310;DHT22;1667;53.238;10.394;2023-05-10T07:48:27;19.30;76.40
3310;DHT22;1667;53.238;10.394;2023-05-10T07:53:26;19.30;76.90
3310;DHT22;1667;53.238;10.394;2023-05-10T07:58:25;19.40;76.80
3310;DHT22;1667;53.238;10.394;2023-05-10T08:03:25;19.50;76.70
3310;DHT22;1667;53.238;10.394;2023-05-10T08:08:24;19.50;76.30
3310;DHT22;1667;53.238;10.394;2023-05-10T08:13:22;19.60;76.70
3310;DHT22;1667;53.238;10.394;2023-05-10T08:18:21;19.60;76.90
3310;DHT22;1667;53.238;10.394;2023-05-10T08:23:21;19.80;77.00
3310;DHT22;1667;53.238;10.394;2023-05-10T08:28:19;19.90;76.50
3310;DHT22;1667;53.238;10.394;2023-05-10T08:33:18;20.10;76.70
3310;DHT22;1667;53.238;10.394;2023-05-10T08:38:17;20.20;77.50
3310;DHT22;1667;53.238;10.394;2023-05-10T08:43:18;20.40;76.80
3310;DHT22;1667;53.238;10.394;2023-05-10T08:48:17;20.40;76.50
3310;DHT22;1667;53.238;10.394;2023-05-10T08:53:16;20.40;76.70
3310;DHT22;1667;53.238;10.394;2023-05-10T08:58:16;20.40;76.40
3310;DHT22;1667;53.238;10.394;2023-05-10T09:10:05;20.50;76.00
3310;DHT22;1667;53.238;10.394;2023-05-10T09:15:07;20.40;76.70
3310;DHT22;1667;53.238;10.394;2023-05-10T09:20:07;20.40;76.10
3310;DHT22;1667;53.238;10.394;2023-05-10T09:25:07;20.50;77.70
3310;DHT22;1667;53.238;10.394;2023-05-10T09:30:08;20.50;76.30
3310;DHT22;1667;53.238;10.394;2023-05-10T09:35:11;20.40;76.10
3310;DHT22;1667;53.238;10.394;2023-05-10T09:40:12;20.50;76.50
3310;DHT22;1667;53.238;10.394;2023-05-10T09:45:12;20.40;76.40
3310;DHT22;1667;53.238;10.394;2023-05-10T09:50:11;20.40;78.50
3310;DHT22;1667;53.238;10.394;2023-05-10T09:55:09;20.40;79.70
3310;DHT22;1667;53.238;10.394;2023-05-10T10:00:08;20.40;79.50
3310;DHT22;1667;53.238;10.394;2023-05-10T10:05:12;20.30;81.20
3310;DHT22;1667;53.238;10.394;2023-05-10T10:10:11;20.30;79.30
3310;DHT22;1667;53.238;10.394;2023-05-10T10:15:11;20.20;81.80
3310;DHT22;1667;53.238;10.394;2023-05-10T10:20:14;20.20;82.40
3310;DHT22;1667;53.238;10.394;2023-05-10T10:25:15;20.10;83.30
3310;DHT22;1667;53.238;10.394;2023-05-10T10:30:21;20.00;83.20
3310;DHT22;1667;53.238;10.394;2023-05-10T10:35:23;20.00;86.20
3310;DHT22;1667;53.238;10.394;2023-05-10T10:40:26;19.90;87.40
3310;DHT22;1667;53.238;10.394;2023-05-10T10:45:28;19.80;86.90
3310;DHT22;1667;53.238;10.394;2023-05-10T10:50:29;19.70;88.50
3310;DHT22;1667;53.238;10.394;2023-05-10T10:55:27;19.60;88.20
3310;DHT22;1667;53.238;10.394;2023-05-10T11:00:28;19.50;88.60
3310;DHT22;1667;53.238;10.394;2023-05-10T11:05:37;19.50;88.70
3310;DHT22;1667;53.238;10.394;2023-05-10T11:10:36;19.50;88.70
3310;DHT22;1667;53.238;10.394;2023-05-10T11:15:36;19.40;89.60
3310;DHT22;1667;53.238;10.394;2023-05-10T11:20:40;19.40;90.00
3310;DHT22;1667;53.238;10.394;2023-05-10T11:25:42;19.40;90.20
3310;DHT22;1667;53.238;10.394;2023-05-10T11:30:43;19.40;90.90
3310;DHT22;1667;53.238;10.394;2023-05-10T11:35:43;19.40;91.70
3310;DHT22;1667;53.238;10.394;2023-05-10T11:40:42;19.40;92.20
3310;DHT22;1667;53.238;10.394;2023-05-10T11:45:41;19.50;92.20
3310;DHT22;1667;53.238;10.394;2023-05-10T11:50:40;19.50;92.30
3310;DHT22;1667;53.238;10.394;2023-05-10T11:55:40;19.50;91.70
3310;DHT22;1667;53.238;10.394;2023-05-10T12:00:38;19.60;92.80
3310;DHT22;1667;53.238;10.394;2023-05-10T12:05:37;19.70;92.50
3310;DHT22;1667;53.238;10.394;2023-05-10T12:10:40;19.70;92.40
3310;DHT22;1667;53.238;10.394;2023-05-10T12:15:39;19.70;92.50
3310;DHT22;1667;53.238;10.394;2023-05-10T12:20:38;19.70;92.30
3310;DHT22;1667;53.238;10.394;2023-05-10T12:25:37;19.80;91.80
3310;DHT22;1667;53.238;10.394;2023-05-10T12:30:38;19.80;91.50
3310;DHT22;1667;53.238;10.394;2023-05-10T12:35:47;19.80;92.10
3310;DHT22;1667;53.238;10.394;2023-05-10T12:40:46;19.90;91.40
3310;DHT22;1667;53.238;10.394;2023-05-10T12:45:47;19.80;91.20
3310;DHT22;1667;53.238;10.394;2023-05-10T12:50:46;19.80;91.90
3310;DHT22;1667;53.238;10.394;2023-05-10T12:55:45;19.80;91.20
3310;DHT22;1667;53.238;10.394;2023-05-10T13:00:43;19.80;92.00
3310;DHT22;1667;53.238;10.394;2023-05-10T13:05:43;19.80;91.90
3310;DHT22;1667;53.238;10.394;2023-05-10T13:10:42;19.90;91.70
3310;DHT22;1667;53.238;10.394;2023-05-10T13:15:40;19.90;92.00
3310;DHT22;1667;53.238;10.394;2023-05-10T13:20:38;20.00;92.40
3310;DHT22;1667;53.238;10.394;2023-05-10T13:25:38;20.00;92.00
3310;DHT22;1667;53.238;10.394;2023-05-10T13:30:36;20.10;92.50
3310;DHT22;1667;53.238;10.394;2023-05-10T13:35:34;20.20;91.20
3310;DHT22;1667;53.238;10.394;2023-05-10T13:40:33;20.20;91.00
3310;DHT22;1667;53.238;10.394;2023-05-10T13:45:33;20.30;92.20
3310;DHT22;1667;53.238;10.394;2023-05-10T13:50:31;20.30;92.20
3310;DHT22;1667;53.238;10.394;2023-05-10T13:55:30;20.30;92.60
3310;DHT22;1667;53.238;10.394;2023-05-10T14:00:28;20.40;91.70
3310;DHT22;1667;53.238;10.394;2023-05-10T14:05:28;20.40;91.80
3310;DHT22;1667;53.238;10.394;2023-05-10T14:10:27;20.40;92.00
3310;DHT22;1667;53.238;10.394;2023-05-10T14:15:25;20.50;91.80
3310;DHT22;1667;53.238;10.394;2023-05-10T14:20:24;20.70;93.10
3310;DHT22;1667;53.238;10.394;2023-05-10T14:25:24;20.80;92.00
3310;DHT22;1667;53.238;10.394;2023-05-10T14:30:23;20.90;92.20
3310;DHT22;1667;53.238;10.394;2023-05-10T14:35:22;21.10;92.60
3310;DHT22;1667;53.238;10.394;2023-05-10T14:40:21;21.20;92.10
3310;DHT22;1667;53.238;10.394;2023-05-10T14:45:21;21.30;92.70
3310;DHT22;1667;53.238;10.394;2023-05-10T14:50:19;21.40;92.20
3310;DHT22;1667;53.238;10.394;2023-05-10T14:55:32;21.50;92.20
3310;DHT22;1667;53.238;10.394;2023-05-10T15:00:33;21.70;92.60
3310;DHT22;1667;53.238;10.394;2023-05-10T15:05:32;21.80;91.80
3310;DHT22;1667;53.238;10.394;2023-05-10T15:10:31;21.80;92.00
3310;DHT22;1667;53.238;10.394;2023-05-10T15:15:30;21.90;92.20
3310;DHT22;1667;53.238;10.394;2023-05-10T15:20:30;21.90;91.70
3310;DHT22;1667;53.238;10.394;2023-05-10T15:25:29;21.90;91.60
3310;DHT22;1667;53.238;10.394;2023-05-10T15:30:27;21.90;91.60
3310;DHT22;1667;53.238;10.394;2023-05-10T15:35:26;22.00;91.60
3310;DHT22;1667;53.238;10.394;2023-05-10T15:40:26;22.00;90.90
3310;DHT22;1667;53.238;10.394;2023-05-10T15:45:24;22.00;91.00
3310;DHT22;1667;53.238;10.394;2023-05-10T15:50:23;22.00;91.20
3310;DHT22;1667;53.238;10.394;2023-05-10T15:55:22;21.90;90.80
3310;DHT22;1667;53.238;10.394;2023-05-10T16:00:22;21.90;90.70
3310;DHT22;1667;53.238;10.394;2023-05-10T16:05:21;21.90;90.80
3310;DHT22;1667;53.238;10.394;2023-05-10T16:10:19;21.90;90.90
3310;DHT22;1667;53.238;10.394;2023-05-10T16:15:18;21.90;91.00
3310;DHT22;1667;53.238;10.394;2023-05-10T16:20:19;21.80;90.50
3310;DHT22;1667;53.238;10.394;2023-05-10T16:25:17;21.70;90.60
3310;DHT22;1667;53.238;10.394;2023-05-10T16:30:16;21.60;90.40
3310;DHT22;1667;53.238;10.394;2023-05-10T16:35:15;21.60;90.50
3310;DHT22;1667;53.238;10.394;2023-05-10T16:40:16;21.50;90.50
3310;DHT22;1667;53.238;10.394;2023-05-10T16:45:14;21.50;90.70
3310;DHT22;1667;53.238;10.394;2023-05-10T16:50:13;21.40;90.50
3310;DHT22;1667;53.238;10.394;2023-05-10T16:55:12;21.30;90.50
3310;DHT22;1667;53.238;10.394;2023-05-10T17:00:13;21.30;90.50
3310;DHT22;1667;53.238;10.394;2023-05-10T17:05:12;21.30;90.60
3310;DHT22;1667;53.238;10.394;2023-05-10T17:10:11;21.30;90.60
3310;DHT22;1667;53.238;10.394;2023-05-10T17:15:11;21.20;90.70
3310;DHT22;1667;53.238;10.394;2023-05-10T17:20:12;21.20;91.10
3310;DHT22;1667;53.238;10.394;2023-05-10T17:25:11;21.10;90.70
3310;DHT22;1667;53.238;10.394;2023-05-10T17:30:12;21.10;91.00
3310;DHT22;1667;53.238;10.394;2023-05-10T17:35:10;21.10;91.10
3310;DHT22;1667;53.238;10.394;2023-05-10T17:40:09;21.00;91.30
3310;DHT22;1667;53.238;10.394;2023-05-10T17:45:09;21.00;91.00
3310;DHT22;1667;53.238;10.394;2023-05-10T17:50:09;20.90;91.30
3310;DHT22;1667;53.238;10.394;2023-05-10T17:55:09;20.90;91.30
3310;DHT22;1667;53.238;10.394;2023-05-10T18:00:09;20.80;91.20
3310;DHT22;1667;53.238;10.394;2023-05-10T18:05:09;20.80;91.60
3310;DHT22;1667;53.238;10.394;2023-05-10T18:10:10;20.70;91.20
3310;DHT22;1667;53.238;10.394;2023-05-10T18:15:09;20.70;91.40
3310;DHT22;1667;53.238;10.394;2023-05-10T18:20:10;20.60;91.80
3310;DHT22;1667;53.238;10.394;2023-05-10T18:25:09;20.60;91.70
3310;DHT22;1667;53.238;10.394;2023-05-10T18:30:08;20.60;91.90
3310;DHT22;1667;53.238;10.394;2023-05-10T18:35:10;20.50;92.00
3310;DHT22;1667;53.238;10.394;2023-05-10T18:40:09;20.50;92.00
3310;DHT22;1667;53.238;10.394;2023-05-10T18:45:11;20.40;92.00
3310;DHT22;1667;53.238;10.394;2023-05-10T18:50:12;20.40;92.20
3310;DHT22;1667;53.238;10.394;2023-05-10T18:55:10;20.30;92.20
3310;DHT22;1667;53.238;10.394;2023-05-10T19:00:10;20.30;92.60
3310;DHT22;1667;53.238;10.394;2023-05-10T19:05:09;20.20;92.40
3310;DHT22;1667;53.238;10.394;2023-05-10T19:10:10;20.10;92.90
3310;DHT22;1667;53.238;10.394;2023-05-10T19:15:10;20.00;93.30
3310;DHT22;1667;53.238;10.394;2023-05-10T19:20:09;20.00;93.20
3310;DHT22;1667;53.238;10.394;2023-05-10T19:25:09;19.90;93.60
3310;DHT22;1667;53.238;10.394;2023-05-10T19:30:09;19.90;93.50
3310;DHT22;1667;53.238;10.394;2023-05-10T19:35:08;19.70;93.60
3310;DHT22;1667;53.238;10.394;2023-05-10T19:40:13;19.70;93.10
3310;DHT22;1667;53.238;10.394;2023-05-10T19:45:13;19.60;93.00
3310;DHT22;1667;53.238;10.394;2023-05-10T19:50:13;19.50;93.40
3310;DHT22;1667;53.238;10.394;2023-05-10T19:55:24;19.40;93.60
3310;DHT22;1667;53.238;10.394;2023-05-10T20:00:23;19.40;94.00
3310;DHT22;1667;53.238;10.394;2023-05-10T20:05:23;19.10;93.70
3310;DHT22;1667;53.238;10.394;2023-05-10T20:10:23;19.30;93.80
3310;DHT22;1667;53.238;10.394;2023-05-10T20:15:23;19.20;93.90
3310;DHT22;1667;53.238;10.394;2023-05-10T20:20:21;19.20;93.80
3310;DHT22;1667;53.238;10.394;2023-05-10T20:25:20;19.10;93.80
3310;DHT22;1667;53.238;10.394;2023-05-10T20:30:20;19.10;93.60
3310;DHT22;1667;53.238;10.394;2023-05-10T20:35:18;19.00;93.80
3310;DHT22;1667;53.238;10.394;2023-05-10T20:40:17;19.00;93.80
3310;DHT22;1667;53.238;10.394;2023-05-10T20:45:16;18.90;93.90
3310;DHT22;1667;53.238;10.394;2023-05-10T20:50:15;18.80;93.70
3310;DHT22;1667;53.238;10.394;2023-05-10T20:55:14;18.80;93.70
3310;DHT22;1667;53.238;10.394;2023-05-10T21:00:13;18.80;93.60
3310;DHT22;1667;53.238;10.394;2023-05-10T21:05:12;18.80;93.70
3310;DHT22;1667;53.238;10.394;2023-05-10T21:10:12;18.70;93.80
3310;DHT22;1667;53.238;10.394;2023-05-10T21:15:11;18.70;94.20
3310;DHT22;1667;53.238;10.394;2023-05-10T21:20:11;18.60;93.90
3310;DHT22;1667;53.238;10.394;2023-05-10T21:25:10;18.60;93.80
3310;DHT22;1667;53.238;10.394;2023-05-10T21:30:10;18.50;94.10
3310;DHT22;1667;53.238;10.394;2023-05-10T21:35:09;18.40;94.30
3310;DHT22;1667;53.238;10.394;2023-05-10T21:40:08;18.40;94.10
3310;DHT22;1667;53.238;10.394;2023-05-10T21:45:07;18.40;94.10
3310;DHT22;1667;53.238;10.394;2023-05-10T21:50:08;18.20;93.90
3310;DHT22;1667;53.238;10.394;2023-05-10T21:55:08;18.20;94.30
3310;DHT22;1667;53.238;10.394;2023-05-10T22:00:08;18.20;94.10
3310;DHT22;1667;53.238;10.394;2023-05-10T22:05:09;18.10;94.30
3310;DHT22;1667;53.238;10.394;2023-05-10T22:10:08;18.10;94.00
3310;DHT22;1667;53.238;10.394;2023-05-10T22:15:07;18.10;94.10
3310;DHT22;1667;53.238;10.394;2023-05-10T22:20:09;18.00;94.10
3310;DHT22;1667;53.238;10.394;2023-05-10T22:25:08;18.00;94.10
3310;DHT22;1667;53.238;10.394;2023-05-10T22:30:07;17.90;94.20
3310;DHT22;1667;53.238;10.394;2023-05-10T22:35:09;17.90;94.30
3310;DHT22;1667;53.238;10.394;2023-05-10T22:40:08;17.80;94.30
3310;DHT22;1667;53.238;10.394;2023-05-10T22:45:08;17.80;94.40
3310;DHT22;1667;53.238;10.394;2023-05-10T22:50:09;17.70;94.40
3310;DHT22;1667;53.238;10.394;2023-05-10T22:55:09;17.70;94.50
3310;DHT22;1667;53.238;10.394;2023-05-10T23:00:08;17.60;94.40
3310;DHT22;1667;53.238;10.394;2023-05-10T23:05:09;17.60;94.30
3310;DHT22;1667;53.238;10.394;2023-05-10T23:10:08;17.60;94.40
3310;DHT22;1667;53.238;10.394;2023-05-10T23:15:07;17.50;94.40
3310;DHT22;1667;53.238;10.394;2023-05-10T23:20:07;17.50;94.40
3310;DHT22;1667;53.238;10.394;2023-05-10T23:25:08;17.50;94.30
3310;DHT22;1667;53.238;10.394;2023-05-10T23:30:08;17.40;94.30
3310;DHT22;1667;53.238;10.394;2023-05-10T23:35:07;17.40;94.30
3310;DHT22;1667;53.238;10.394;2023-05-10T23:40:09;17.40;94.30
3310;DHT22;1667;53.238;10.394;2023-05-10T23:45:08;17.30;94.30
3310;DHT22;1667;53.238;10.394;2023-05-10T23:50:07;17.30;94.30
3310;DHT22;1667;53.238;10.394;2023-05-10T23:55:09;17.30;94.40
